Time;durP1;ratioP1;P1;durP2;ratioP2;P2;SDS_P1;SDS_P2;PMS_P1;PMS_P2;Temp;Humidity;BMP_temperature;BMP_pressure;BME280_temperature;BME280_humidity;BME280_pressure;Samples;Min_cycle;Max_cycle;Signal;HPM_P1;HPM_P2
2022/08/07 07:55:23;;;;;;;6.47;3.60;;;19.40;78.70;;;;;;6250786;22;20512;-89
2022/08/07 07:58:14;;;;;;;;;;;;;;;;;;;;;
2022/08/07 08:00:41;;;;;;;;;;;19.50;78.00;;;;;;6248177;23;20517;-89
2022/08/07 08:03:37;;;;;;;;;;;;;;;;;;;;;
2022/08/07 08:06:36;;;;;;;;;;;;;;;;;;;;;
2022/08/07 08:12:07;;;;;;;;;;;;;;;;;;;;;
2022/08/07 08:14:45;;;;;;;3.15;2.35;;;19.80;76.40;;;;;;6249827;23;20083;-89
2022/08/07 08:17:48;;;;;;;3.25;2.60;;;20.00;76.20;;;;;;6246756;23;20507;-90
2022/08/07 08:20:32;;;;;;;2.83;2.33;;;20.00;76.10;;;;;;6248137;23;20000;-88
2022/08/07 08:27:03;;;;;;;4.18;2.45;;;20.20;75.90;;;;;;6248514;23;20071;-88
2022/08/07 08:32:56;;;;;;;;;;;;;;;;;;;;;
2022/08/07 08:35:56;;;;;;;2.85;2.20;;;20.40;74.30;;;;;;6248359;23;20383;-91
2022/08/07 08:39:21;;;;;;;;;;;;;;;;;;;;;
2022/08/07 08:45:49;;;;;;;3.33;2.42;;;20.70;74.80;;;;;;6231582;22;20058;-89
2022/08/07 08:48:32;;;;;;;;;;;20.80;74.70;;;;;;6247763;23;20011;-89
2022/08/07 08:51:58;;;;;;;;;;;;;;;;;;;;;
2022/08/07 08:54:46;;;;;;;3.05;1.80;;;20.90;73.50;;;;;;6219964;22;20076;-89
2022/08/07 09:02:25;;;;;;;;;;;;;;;;;;;;;
2022/08/07 09:04:40;;;;;;;;;;;;;;;;;;;;;
2022/08/07 09:08:16;;;;;;;;;;;;;;;;;;;;;
2022/08/07 09:14:51;;;;;;;1.63;1.38;;;21.30;70.00;;;;;;6279010;22;20011;-88
2022/08/07 09:18:07;;;;;;;;;;;;;;;;;;;;;
2022/08/07 09:21:14;;;;;;;1.83;1.58;;;21.50;69.70;;;;;;6217592;22;20074;-88
2022/08/07 09:28:06;;;;;;;1.77;1.65;;;21.70;70.40;;;;;;6220141;22;20014;-88
2022/08/07 09:31:07;;;;;;;;;;;;;;;;;;;;;
2022/08/07 09:34:56;;;;;;;3.30;1.73;;;21.80;70.00;;;;;;6267962;22;20096;-88
2022/08/07 09:40:58;;;;;;;1.75;1.40;;;22.00;70.20;;;;;;6072157;23;20344;-86
2022/08/07 09:43:50;;;;;;;3.58;1.73;;;22.10;70.40;;;;;;6100811;23;20313;-90
2022/08/07 09:46:31;;;;;;;;;;;;;;;;;;;;;
2022/08/07 09:49:18;;;;;;;2.05;1.40;;;22.20;69.90;;;;;;6260485;22;20071;-86
2022/08/07 09:56:20;;;;;;;;;;;;;;;;;;;;;
2022/08/07 10:00:01;;;;;;;2.67;1.70;;;22.30;69.30;;;;;;6278076;22;20370;-87
2022/08/07 10:03:10;;;;;;;2.45;1.48;;;22.40;69.10;;;;;;6277675;22;20031;-88
2022/08/07 10:06:25;;;;;;;;;;;;;;;;;;;;;
2022/08/07 10:09:30;;;;;;;;;;;;;;;;;;;;;
2022/08/07 10:12:54;;;;;;;;;;;;;;;;;;;;;
2022/08/07 10:22:11;;;;;;;;;;;22.70;67.50;;;;;;6170199;22;20004;-87
2022/08/07 10:25:14;;;;;;;1.50;1.23;;;22.70;66.40;;;;;;6251601;22;19900;-86
2022/08/07 10:32:04;;;;;;;;;;;;;;;;;;;;;
2022/08/07 10:35:15;;;;;;;1.48;1.10;;;22.90;65.10;;;;;;6278336;22;20366;-88
2022/08/07 10:37:51;;;;;;;;;;;;;;;;;;;;;
2022/08/07 10:40:43;;;;;;;1.55;1.23;;;22.90;62.30;;;;;;6277763;22;20083;-87
2022/08/07 10:43:24;;;;;;;;;;;;;;;;;;;;;
2022/08/07 10:46:36;;;;;;;;;;;;;;;;;;;;;
2022/08/07 10:53:00;;;;;;;1.10;0.90;;;22.90;60.10;;;;;;6256363;22;20118;-87
2022/08/07 10:55:58;;;;;;;1.33;1.13;;;23.10;61.40;;;;;;6278393;22;20050;-87
2022/08/07 10:59:22;;;;;;;1.90;1.33;;;23.00;61.60;;;;;;6236694;22;20030;-86
2022/08/07 11:02:10;;;;;;;1.17;1.00;;;23.10;61.80;;;;;;6285029;22;20003;-87
2022/08/07 11:05:08;;;;;;;1.45;1.00;;;23.10;62.30;;;;;;6277483;22;20019;-88
2022/08/07 11:07:48;;;;;;;1.23;1.00;;;23.20;62.10;;;;;;6277499;22;19980;-88
2022/08/07 11:10:43;;;;;;;3.35;1.30;;;23.30;60.60;;;;;;6278130;22;20004;-88
2022/08/07 11:16:27;;;;;;;2.80;1.40;;;23.30;60.30;;;;;;6250391;22;20111;-88
2022/08/07 11:20:03;;;;;;;;;;;;;;;;;;;;;
2022/08/07 11:22:54;;;;;;;1.40;1.23;;;23.40;61.50;;;;;;6277668;22;20083;-88
2022/08/07 11:25:54;;;;;;;1.52;1.10;;;23.50;62.00;;;;;;6277107;22;20004;-88
2022/08/07 11:32:37;;;;;;;1.98;1.30;;;23.60;62.30;;;;;;6183329;23;20012;-87
2022/08/07 11:35:41;;;;;;;1.30;1.13;;;23.70;62.30;;;;;;6180822;22;20382;-87
2022/08/07 11:38:29;;;;;;;1.50;1.40;;;23.80;62.00;;;;;;6169956;22;20026;-87
2022/08/07 11:41:43;;;;;;;2.42;1.10;;;23.90;61.60;;;;;;6249345;22;20007;-87
2022/08/07 11:44:33;;;;;;;2.22;1.30;;;23.90;61.70;;;;;;6250024;22;20015;-88
2022/08/07 11:47:35;;;;;;;;;;;;;;;;;;;;;
2022/08/07 11:53:56;;;;;;;2.05;1.60;;;24.00;61.20;;;;;;6242161;22;20011;-86
2022/08/07 11:57:12;;;;;;;2.40;1.40;;;24.10;60.70;;;;;;6250474;22;20099;-87
2022/08/07 11:59:47;;;;;;;2.53;1.70;;;24.10;61.10;;;;;;6230259;22;20006;-87
2022/08/07 12:03:09;;;;;;;1.58;1.40;;;24.20;61.00;;;;;;6249054;22;20007;-88
2022/08/07 12:29:40;;;;;;;1.67;1.48;;;24.70;60.10;;;;;;6277752;22;20030;-86
2022/08/07 12:32:19;;;;;;;2.07;1.77;;;24.80;60.50;;;;;;6247910;22;19996;-86
2022/08/07 12:34:48;;;;;;;2.80;1.80;;;24.80;60.30;;;;;;6248736;22;20014;-86
2022/08/07 12:37:21;;;;;;;2.40;1.95;;;24.80;58.80;;;;;;6249401;22;20031;-86
2022/08/07 12:39:49;;;;;;;2.05;1.88;;;24.80;59.00;;;;;;6248799;22;20000;-86
2022/08/07 12:42:20;;;;;;;3.67;1.80;;;24.90;59.30;;;;;;6275007;22;19999;-88
2022/08/07 12:44:51;;;;;;;2.60;1.98;;;24.90;59.50;;;;;;6249082;22;20025;-86
2022/08/07 12:47:34;;;;;;;2.63;2.10;;;24.90;59.60;;;;;;6250185;22;20003;-86
2022/08/07 12:50:29;;;;;;;1.90;1.77;;;24.90;59.90;;;;;;6251151;22;20380;-87
2022/08/07 12:53:18;;;;;;;1.70;1.60;;;24.90;59.10;;;;;;6251472;22;20086;-87
2022/08/07 12:56:14;;;;;;;2.45;1.77;;;25.00;59.20;;;;;;6251105;22;20042;-87
2022/08/07 12:58:45;;;;;;;2.03;1.80;;;25.10;59.00;;;;;;6250973;22;20024;-86
2022/08/07 13:01:17;;;;;;;1.90;1.70;;;25.10;59.30;;;;;;6278453;22;20478;-86
2022/08/07 13:04:09;;;;;;;3.17;1.88;;;25.10;59.70;;;;;;6278185;22;20329;-86
2022/08/07 13:07:16;;;;;;;2.13;1.90;;;25.20;59.80;;;;;;6250727;22;19996;-87
2022/08/07 13:10:21;;;;;;;1.95;1.70;;;25.20;59.40;;;;;;6281986;22;19996;-86
2022/08/07 13:13:05;;;;;;;2.60;1.73;;;25.20;59.40;;;;;;6279517;22;20015;-86
2022/08/07 13:15:42;;;;;;;2.25;1.98;;;25.30;59.40;;;;;;6279884;22;20004;-86
2022/08/07 13:18:29;;;;;;;2.40;1.63;;;25.30;58.90;;;;;;6278784;22;19987;-92
2022/08/07 13:21:11;;;;;;;2.30;1.90;;;25.30;58.40;;;;;;6279451;22;20055;-86
2022/08/07 13:23:41;;;;;;;2.17;1.92;;;25.30;58.70;;;;;;6265494;22;20086;-86
2022/08/07 13:26:25;;;;;;;2.00;1.85;;;25.30;58.90;;;;;;6251330;22;20081;-87
2022/08/07 13:29:14;;;;;;;2.13;1.58;;;25.30;59.20;;;;;;6250274;22;20042;-86
2022/08/07 13:31:58;;;;;;;3.92;1.85;;;25.40;59.00;;;;;;6278105;22;20134;-86
2022/08/07 13:34:50;;;;;;;1.98;1.80;;;25.40;59.00;;;;;;6250569;22;20012;-86
2022/08/07 13:37:32;;;;;;;2.80;2.00;;;25.40;58.10;;;;;;6250890;22;19999;-86
2022/08/07 13:40:24;;;;;;;1.90;1.70;;;25.50;58.40;;;;;;6250565;22;20058;-86
2022/08/07 13:42:51;;;;;;;2.65;1.83;;;25.50;58.20;;;;;;6251267;22;20493;-86
2022/08/07 13:45:20;;;;;;;2.05;1.85;;;25.50;57.50;;;;;;6251655;22;19999;-86
2022/08/07 13:47:51;;;;;;;2.35;1.90;;;25.50;57.10;;;;;;6277625;22;19996;-86
2022/08/07 13:50:21;;;;;;;3.88;1.95;;;25.60;57.10;;;;;;6250344;22;20008;-86
2022/08/07 13:52:48;;;;;;;2.10;1.90;;;25.60;55.90;;;;;;6250160;22;20031;-86
2022/08/07 13:55:18;;;;;;;1.95;1.77;;;25.60;55.90;;;;;;6250571;22;20091;-86
2022/08/07 13:57:48;;;;;;;1.63;1.48;;;25.60;56.30;;;;;;6250214;22;20008;-86
2022/08/07 14:00:17;;;;;;;2.07;1.80;;;25.70;56.80;;;;;;6250134;22;20039;-88
2022/08/07 14:02:50;;;;;;;1.52;1.42;;;25.70;56.70;;;;;;6250037;22;20525;-87
2022/08/07 14:05:28;;;;;;;1.98;1.60;;;25.70;56.70;;;;;;6224998;22;20003;-87
2022/08/07 14:07:55;;;;;;;2.30;1.67;;;25.80;57.10;;;;;;6250679;22;19999;-87
2022/08/07 14:10:24;;;;;;;3.38;1.42;;;25.80;56.30;;;;;;6250086;22;20000;-87
2022/08/07 14:13:03;;;;;;;2.25;1.33;;;25.80;56.40;;;;;;6250463;22;20008;-87
2022/08/07 14:15:42;;;;;;;1.50;1.40;;;25.80;56.10;;;;;;6250586;22;20007;-87
2022/08/07 14:18:37;;;;;;;2.13;1.58;;;25.80;56.60;;;;;;6249872;22;20536;-88
2022/08/07 14:21:13;;;;;;;1.35;1.13;;;25.90;56.70;;;;;;6249275;22;20445;-87
2022/08/07 14:23:52;;;;;;;2.42;1.33;;;25.90;56.30;;;;;;6250180;22;19999;-87
2022/08/07 14:26:22;;;;;;;1.55;1.42;;;25.90;55.80;;;;;;6250453;22;20000;-87
2022/08/07 14:28:49;;;;;;;1.50;1.40;;;25.90;55.70;;;;;;6277269;22;20110;-86
2022/08/07 14:31:16;;;;;;;1.65;1.40;;;25.90;55.90;;;;;;6249739;22;20000;-87
2022/08/07 14:33:51;;;;;;;1.30;1.02;;;25.90;56.00;;;;;;6249785;22;20004;-87
2022/08/07 14:36:25;;;;;;;1.98;1.30;;;25.90;56.10;;;;;;6249766;22;20014;-87
2022/08/07 14:38:54;;;;;;;2.25;1.45;;;25.90;56.40;;;;;;6250859;22;20061;-87
2022/08/07 14:41:28;;;;;;;1.27;1.17;;;25.90;55.70;;;;;;6250524;22;20008;-87
2022/08/07 14:43:55;;;;;;;1.15;1.00;;;25.90;55.30;;;;;;6250085;22;20433;-87
2022/08/07 14:46:25;;;;;;;1.60;1.00;;;25.90;55.20;;;;;;6249708;22;20088;-88
2022/08/07 14:48:54;;;;;;;1.13;1.02;;;26.00;55.50;;;;;;6250275;22;20019;-89
2022/08/07 14:51:40;;;;;;;1.40;1.30;;;26.00;55.10;;;;;;6248989;22;20050;-87
2022/08/07 14:54:09;;;;;;;1.17;1.08;;;26.00;55.30;;;;;;6277919;22;20007;-86
2022/08/07 14:56:40;;;;;;;1.15;1.02;;;26.00;55.60;;;;;;6278463;22;19996;-87
2022/08/07 14:59:08;;;;;;;;;;;26.00;55.70;;;;;;6252071;22;20333;-88
2022/08/07 15:01:37;;;;;;;1.00;0.90;;;26.00;55.80;;;;;;6250439;22;20198;-86
2022/08/07 15:04:05;;;;;;;2.55;1.17;;;26.00;55.80;;;;;;6249869;22;20030;-86
2022/08/07 15:06:35;;;;;;;1.48;1.00;;;26.00;55.80;;;;;;6249924;22;20004;-86
2022/08/07 15:09:09;;;;;;;1.33;1.00;;;26.00;56.00;;;;;;6249745;22;20003;-86
2022/08/07 15:11:40;;;;;;;1.48;1.17;;;26.10;56.00;;;;;;6277419;22;19995;-87
2022/08/07 15:14:16;;;;;;;1.65;1.20;;;26.10;55.00;;;;;;6251262;22;20031;-86
2022/08/07 15:16:47;;;;;;;1.10;1.00;;;26.20;55.30;;;;;;6250799;22;20010;-87
2022/08/07 15:19:18;;;;;;;2.47;1.15;;;26.20;55.20;;;;;;6291701;22;19995;-87
2022/08/07 15:21:59;;;;;;;1.63;1.40;;;26.20;54.70;;;;;;6277412;22;20002;-88
2022/08/07 15:24:33;;;;;;;2.00;1.38;;;26.20;54.00;;;;;;6277540;22;19991;-87
2022/08/07 15:27:10;;;;;;;2.58;1.33;;;26.20;53.10;;;;;;6303518;22;20023;-93
2022/08/07 15:29:46;;;;;;;1.30;1.20;;;26.10;53.10;;;;;;6303753;22;19991;-87
2022/08/07 15:32:21;;;;;;;2.17;1.63;;;26.00;53.60;;;;;;6246118;22;20004;-87
2022/08/07 15:34:57;;;;;;;2.70;1.73;;;26.10;54.00;;;;;;6251476;22;20028;-87
2022/08/07 15:37:36;;;;;;;2.42;1.80;;;26.20;54.20;;;;;;6225409;22;20303;-87
2022/08/07 15:40:17;;;;;;;;;;;;;;;;;;;;;
2022/08/07 15:42:43;;;;;;;2.72;1.88;;;26.20;54.60;;;;;;6276534;22;20075;-87
2022/08/07 15:45:36;;;;;;;2.55;1.58;;;26.20;54.30;;;;;;6248227;22;20030;-88
2022/08/07 15:48:08;;;;;;;2.22;1.67;;;26.20;54.50;;;;;;6249505;22;19999;-87
2022/08/07 15:50:38;;;;;;;2.83;1.92;;;26.10;54.10;;;;;;6276759;22;19996;-87
2022/08/07 15:53:31;;;;;;;2.10;1.90;;;26.10;54.00;;;;;;6249754;22;20031;-87
2022/08/07 15:56:03;;;;;;;3.08;1.90;;;26.10;54.40;;;;;;6226131;22;20012;-88
2022/08/07 15:58:59;;;;;;;2.13;1.92;;;26.10;54.00;;;;;;6248970;22;20090;-90
2022/08/07 16:01:33;;;;;;;2.63;1.85;;;26.10;54.00;;;;;;6249893;22;20376;-87
2022/08/07 16:04:14;;;;;;;8.32;6.75;;;26.00;54.40;;;;;;6249053;22;20011;-88
2022/08/07 16:07:00;;;;;;;20.52;14.18;;;26.00;54.60;;;;;;6279456;22;19999;-89
2022/08/07 16:09:35;;;;;;;27.25;21.67;;;26.00;54.40;;;;;;6254274;22;20000;-87
2022/08/07 16:12:25;;;;;;;26.50;20.75;;;25.90;53.70;;;;;;6259649;22;20010;-92
2022/08/07 16:14:51;;;;;;;;;;;25.90;53.60;;;;;;6277478;22;20063;-91
2022/08/07 16:18:01;;;;;;;16.15;14.50;;;25.90;53.60;;;;;;6276822;22;19887;-91
2022/08/07 16:20:36;;;;;;;5.05;3.85;;;25.80;53.80;;;;;;6269785;22;20004;-87
2022/08/07 16:23:19;;;;;;;2.22;2.03;;;25.80;52.90;;;;;;6281979;22;20053;-87
2022/08/07 16:26:02;;;;;;;1.90;1.48;;;25.80;52.80;;;;;;6254291;22;20000;-89
2022/08/07 16:29:00;;;;;;;2.67;1.42;;;25.70;52.60;;;;;;6252045;22;20071;-87
2022/08/07 16:31:28;;;;;;;2.20;1.35;;;25.70;51.90;;;;;;6252192;22;20063;-87
2022/08/07 16:34:02;;;;;;;1.85;1.67;;;25.60;51.60;;;;;;6251424;22;20333;-88
2022/08/07 16:36:43;;;;;;;;;;;;;;;;;;;;;
2022/08/07 16:39:28;;;;;;;2.97;1.75;;;25.50;51.70;;;;;;6279177;22;20055;-87
2022/08/07 16:42:05;;;;;;;3.10;1.65;;;25.40;51.50;;;;;;6279372;22;20321;-89
2022/08/07 16:44:56;;;;;;;1.20;1.10;;;25.30;51.40;;;;;;6251811;22;20091;-87
2022/08/07 16:48:10;;;;;;;;;;;;;;;;;;;;;
2022/08/07 16:51:04;;;;;;;3.63;2.05;;;25.30;51.60;;;;;;6278228;22;20074;-87
2022/08/07 16:53:48;;;;;;;3.20;2.90;;;25.30;51.50;;;;;;6252189;22;20069;-88
2022/08/07 16:56:19;;;;;;;3.25;2.60;;;25.40;51.20;;;;;;6246418;23;20016;-86
2022/08/07 16:58:54;;;;;;;2.20;1.80;;;25.30;51.60;;;;;;6247255;22;19996;-87
2022/08/07 17:01:40;;;;;;;2.33;1.90;;;25.30;51.40;;;;;;6245722;23;20000;-87
2022/08/07 17:04:20;;;;;;;1.95;1.80;;;25.30;51.50;;;;;;6246858;23;20008;-87
2022/08/07 17:07:15;;;;;;;1.83;1.40;;;25.30;51.70;;;;;;6247886;23;19996;-86
2022/08/07 17:09:54;;;;;;;1.80;1.35;;;25.20;51.80;;;;;;6225307;23;20004;-86
2022/08/07 17:12:57;;;;;;;1.60;1.50;;;25.10;52.00;;;;;;6246103;23;20032;-86
2022/08/07 17:15:48;;;;;;;2.80;1.80;;;25.00;52.10;;;;;;6247101;23;20012;-87
2022/08/07 17:18:49;;;;;;;3.55;1.42;;;24.90;52.40;;;;;;6246938;23;20050;-86
2022/08/07 17:21:54;;;;;;;2.70;2.50;;;24.90;52.50;;;;;;6248399;23;20414;-87
2022/08/07 17:24:40;;;;;;;3.47;2.08;;;24.80;52.50;;;;;;6248580;23;20099;-91
2022/08/07 17:27:56;;;;;;;2.60;1.25;;;24.70;52.60;;;;;;6248627;23;20500;-86
2022/08/07 17:30:44;;;;;;;2.17;1.20;;;24.70;52.80;;;;;;6273237;22;19989;-90
2022/08/07 17:33:27;;;;;;;2.15;1.30;;;24.70;53.20;;;;;;6251162;22;19993;-90
2022/08/07 17:36:38;;;;;;;2.05;1.27;;;24.60;52.90;;;;;;6273939;22;20015;-87
2022/08/07 17:39:37;;;;;;;3.58;1.20;;;24.50;53.20;;;;;;6213348;22;19999;-86
2022/08/07 17:42:35;;;;;;;1.17;1.08;;;24.50;53.50;;;;;;6258827;23;20058;-87
2022/08/07 17:45:16;;;;;;;1.80;1.20;;;24.40;53.70;;;;;;6226974;23;20008;-88
2022/08/07 17:47:57;;;;;;;1.58;1.20;;;24.40;53.80;;;;;;6247174;23;20047;-88
2022/08/07 17:50:30;;;;;;;;;;;24.30;53.70;;;;;;6246048;23;20008;-87
2022/08/07 17:53:28;;;;;;;2.33;1.27;;;24.30;53.80;;;;;;6246589;23;20325;-87
2022/08/07 17:56:22;;;;;;;1.70;1.10;;;24.20;53.90;;;;;;6141718;22;20095;-88
2022/08/07 17:58:54;;;;;;;2.25;1.10;;;24.10;54.10;;;;;;6242525;23;20095;-87
2022/08/07 18:01:26;;;;;;;1.20;1.10;;;24.10;54.30;;;;;;6248051;22;20527;-88
2022/08/07 18:04:20;;;;;;;1.55;1.23;;;24.00;54.40;;;;;;6246122;23;20070;-88
2022/08/07 18:07:04;;;;;;;2.47;1.33;;;24.00;54.60;;;;;;6246041;23;20004;-88
2022/08/07 18:09:48;;;;;;;1.70;1.10;;;24.00;54.60;;;;;;6245311;23;20054;-87
2022/08/07 18:12:30;;;;;;;1.45;1.00;;;23.90;54.70;;;;;;6246287;23;20385;-90
2022/08/07 18:15:16;;;;;;;3.65;1.50;;;23.90;54.60;;;;;;6245797;23;20012;-87
2022/08/07 18:18:06;;;;;;;1.60;1.00;;;23.80;54.90;;;;;;6245154;23;20034;-87
2022/08/07 18:20:43;;;;;;;1.02;0.98;;;23.80;55.10;;;;;;6246330;22;20449;-87
2022/08/07 18:23:18;;;;;;;2.10;1.30;;;23.80;55.10;;;;;;6245276;23;19996;-88
2022/08/07 18:26:00;;;;;;;1.55;1.25;;;23.80;55.20;;;;;;6246822;23;20318;-87
2022/08/07 18:28:50;;;;;;;1.52;1.10;;;23.70;55.30;;;;;;6246288;23;20007;-88
2022/08/07 18:31:50;;;;;;;2.00;1.40;;;23.70;55.50;;;;;;6245900;23;20437;-87
2022/08/07 18:34:27;;;;;;;2.55;1.40;;;23.70;56.20;;;;;;6245462;23;20008;-87
2022/08/07 18:37:25;;;;;;;1.70;1.00;;;23.60;55.70;;;;;;6246368;23;20000;-88
2022/08/07 18:40:00;;;;;;;1.77;1.25;;;23.50;55.90;;;;;;6246256;23;20079;-86
2022/08/07 18:43:05;;;;;;;1.73;1.35;;;23.40;56.20;;;;;;6246131;23;20093;-88
2022/08/07 18:45:55;;;;;;;1.50;1.40;;;23.40;56.40;;;;;;6265376;22;20004;-88
2022/08/07 18:48:29;;;;;;;2.13;1.40;;;23.40;56.60;;;;;;6245923;23;20011;-88
2022/08/07 18:51:03;;;;;;;2.92;1.42;;;23.40;56.80;;;;;;6245347;23;20000;-88
2022/08/07 18:54:00;;;;;;;2.97;1.75;;;23.30;57.00;;;;;;6246003;23;20014;-89
2022/08/07 18:56:55;;;;;;;1.55;1.20;;;23.30;57.10;;;;;;6277698;22;20008;-88
2022/08/07 18:59:50;;;;;;;2.60;1.40;;;23.30;57.30;;;;;;6251189;22;20386;-88
2022/08/07 19:02:30;;;;;;;2.65;1.33;;;23.20;57.20;;;;;;6250977;22;20050;-87
2022/08/07 19:05:26;;;;;;;1.88;1.40;;;23.20;57.40;;;;;;6250770;22;20039;-87
2022/08/07 19:08:17;;;;;;;2.10;1.40;;;23.20;57.70;;;;;;6251482;22;19995;-87
2022/08/07 19:11:03;;;;;;;1.90;1.33;;;23.10;57.80;;;;;;6251066;22;20006;-87
2022/08/07 19:13:47;;;;;;;1.70;1.40;;;23.10;58.00;;;;;;6249943;22;20085;-87
2022/08/07 19:16:49;;;;;;;1.30;1.20;;;23.00;58.40;;;;;;6251791;22;19999;-88
2022/08/07 19:19:21;;;;;;;1.50;1.40;;;23.10;58.70;;;;;;6251127;22;20004;-87
2022/08/07 19:21:57;;;;;;;2.80;1.67;;;23.00;59.00;;;;;;6250987;22;20004;-88
2022/08/07 19:24:35;;;;;;;2.40;1.77;;;22.90;59.40;;;;;;6250753;22;20007;-88
2022/08/07 19:27:08;;;;;;;1.95;1.35;;;22.80;59.80;;;;;;6253038;22;20086;-88
2022/08/07 19:29:43;;;;;;;1.88;1.52;;;22.80;60.10;;;;;;6254087;22;20003;-89
